sensor_id;sensor_type;location;lat;lon;timestamp;temperature;humidity
29207;DHT22;16247;50.840;4.382;2022-07-01T00:00:33;14.60;99.90
29207;DHT22;16247;50.840;4.382;2022-07-01T00:03:01;14.60;99.90
29207;DHT22;16247;50.840;4.382;2022-07-01T00:05:27;14.60;99.90
29207;DHT22;16247;50.840;4.382;2022-07-01T00:07:56;14.70;99.90
29207;DHT22;16247;50.840;4.382;2022-07-01T00:10:26;14.80;99.90
29207;DHT22;16247;50.840;4.382;2022-07-01T00:12:52;14.70;99.90
29207;DHT22;16247;50.840;4.382;2022-07-01T00:15:18;14.60;99.90
29207;DHT22;16247;50.840;4.382;2022-07-01T00:17:48;14.70;99.90
29207;DHT22;16247;50.840;4.382;2022-07-01T00:20:34;14.60;99.90
29207;DHT22;16247;50.840;4.382;2022-07-01T00:23:00;14.60;99.90
29207;DHT22;16247;50.840;4.382;2022-07-01T00:25:27;14.60;99.90
29207;DHT22;16247;50.840;4.382;2022-07-01T00:27:53;14.60;99.90
29207;DHT22;16247;50.840;4.382;2022-07-01T00:30:22;14.50;99.90
29207;DHT22;16247;50.840;4.382;2022-07-01T00:32:50;14.60;99.90
29207;DHT22;16247;50.840;4.382;2022-07-01T00:35:19;14.60;99.90
29207;DHT22;16247;50.840;4.382;2022-07-01T00:37:45;14.60;99.90
29207;DHT22;16247;50.840;4.382;2022-07-01T00:40:12;14.50;99.90
29207;DHT22;16247;50.840;4.382;2022-07-01T00:42:39;14.40;99.90
29207;DHT22;16247;50.840;4.382;2022-07-01T00:45:08;14.50;99.90
29207;DHT22;16247;50.840;4.382;2022-07-01T00:47:42;14.50;99.90
29207;DHT22;16247;50.840;4.382;2022-07-01T00:50:11;14.50;99.90
29207;DHT22;16247;50.840;4.382;2022-07-01T00:52:39;14.50;99.90
29207;DHT22;16247;50.840;4.382;2022-07-01T00:55:10;14.40;99.90
29207;DHT22;16247;50.840;4.382;2022-07-01T01:00:18;14.40;99.90
29207;DHT22;16247;50.840;4.382;2022-07-01T01:02:47;14.60;99.90
29207;DHT22;16247;50.840;4.382;2022-07-01T01:05:12;14.50;99.90
29207;DHT22;16247;50.840;4.382;2022-07-01T01:07:40;14.60;99.90
29207;DHT22;16247;50.840;4.382;2022-07-01T01:10:15;14.50;99.90
29207;DHT22;16247;50.840;4.382;2022-07-01T01:16:19;14.60;99.90
29207;DHT22;16247;50.840;4.382;2022-07-01T01:22:17;14.50;99.90
29207;DHT22;16247;50.840;4.382;2022-07-01T01:24:50;14.40;99.90
29207;DHT22;16247;50.840;4.382;2022-07-01T01:27:31;14.40;99.90
29207;DHT22;16247;50.840;4.382;2022-07-01T01:29:57;14.50;99.90
29207;DHT22;16247;50.840;4.382;2022-07-01T01:32:23;14.60;99.90
29207;DHT22;16247;50.840;4.382;2022-07-01T01:34:49;14.50;99.90
29207;DHT22;16247;50.840;4.382;2022-07-01T01:37:17;14.50;99.90
29207;DHT22;16247;50.840;4.382;2022-07-01T01:39:45;14.50;99.90
29207;DHT22;16247;50.840;4.382;2022-07-01T01:42:13;14.50;99.90
29207;DHT22;16247;50.840;4.382;2022-07-01T01:44:39;14.60;99.90
29207;DHT22;16247;50.840;4.382;2022-07-01T01:47:11;14.50;99.90
29207;DHT22;16247;50.840;4.382;2022-07-01T01:49:41;14.40;99.90
29207;DHT22;16247;50.840;4.382;2022-07-01T01:52:07;14.50;99.90
29207;DHT22;16247;50.840;4.382;2022-07-01T01:54:34;14.70;99.90
29207;DHT22;16247;50.840;4.382;2022-07-01T01:57:07;14.60;99.90
29207;DHT22;16247;50.840;4.382;2022-07-01T01:59:33;14.50;99.90
29207;DHT22;16247;50.840;4.382;2022-07-01T02:02:02;14.50;99.90
29207;DHT22;16247;50.840;4.382;2022-07-01T02:04:32;14.50;99.90
29207;DHT22;16247;50.840;4.382;2022-07-01T02:07:17;14.50;99.90
29207;DHT22;16247;50.840;4.382;2022-07-01T02:09:46;14.50;99.90
29207;DHT22;16247;50.840;4.382;2022-07-01T02:12:28;14.50;99.90
29207;DHT22;16247;50.840;4.382;2022-07-01T02:14:54;14.40;99.90
29207;DHT22;16247;50.840;4.382;2022-07-01T02:17:20;14.50;99.90
29207;DHT22;16247;50.840;4.382;2022-07-01T02:23:16;14.40;99.90
29207;DHT22;16247;50.840;4.382;2022-07-01T02:25:48;14.60;99.90
29207;DHT22;16247;50.840;4.382;2022-07-01T02:28:15;14.50;99.90
29207;DHT22;16247;50.840;4.382;2022-07-01T02:30:44;14.50;99.90
29207;DHT22;16247;50.840;4.382;2022-07-01T02:33:13;14.50;99.90
29207;DHT22;16247;50.840;4.382;2022-07-01T02:35:40;14.60;99.90
29207;DHT22;16247;50.840;4.382;2022-07-01T02:38:07;14.70;99.90
29207;DHT22;16247;50.840;4.382;2022-07-01T02:40:38;14.70;99.90
29207;DHT22;16247;50.840;4.382;2022-07-01T02:43:06;14.70;99.90
29207;DHT22;16247;50.840;4.382;2022-07-01T02:45:32;14.70;99.90
29207;DHT22;16247;50.840;4.382;2022-07-01T02:48:04;14.60;99.90
29207;DHT22;16247;50.840;4.382;2022-07-01T02:50:30;14.60;99.90
29207;DHT22;16247;50.840;4.382;2022-07-01T02:52:56;14.60;99.90
29207;DHT22;16247;50.840;4.382;2022-07-01T02:55:23;14.60;99.90
29207;DHT22;16247;50.840;4.382;2022-07-01T02:57:50;14.50;99.90
29207;DHT22;16247;50.840;4.382;2022-07-01T03:00:27;14.40;99.90
29207;DHT22;16247;50.840;4.382;2022-07-01T03:02:53;14.40;99.90
29207;DHT22;16247;50.840;4.382;2022-07-01T03:05:18;14.30;99.90
29207;DHT22;16247;50.840;4.382;2022-07-01T03:07:45;14.30;99.90
29207;DHT22;16247;50.840;4.382;2022-07-01T03:10:18;14.30;99.90
29207;DHT22;16247;50.840;4.382;2022-07-01T03:13:10;14.30;99.90
29207;DHT22;16247;50.840;4.382;2022-07-01T03:19:00;14.20;99.90
29207;DHT22;16247;50.840;4.382;2022-07-01T03:24:39;14.10;99.90
29207;DHT22;16247;50.840;4.382;2022-07-01T03:27:11;14.20;99.90
29207;DHT22;16247;50.840;4.382;2022-07-01T03:29:36;14.20;99.90
29207;DHT22;16247;50.840;4.382;2022-07-01T03:32:12;14.20;99.90
29207;DHT22;16247;50.840;4.382;2022-07-01T03:34:43;14.30;99.90
29207;DHT22;16247;50.840;4.382;2022-07-01T03:37:17;14.30;99.90
29207;DHT22;16247;50.840;4.382;2022-07-01T03:39:47;14.20;99.90
29207;DHT22;16247;50.840;4.382;2022-07-01T03:42:16;14.20;99.90
29207;DHT22;16247;50.840;4.382;2022-07-01T03:44:43;14.30;99.90
29207;DHT22;16247;50.840;4.382;2022-07-01T03:47:10;14.40;99.90
29207;DHT22;16247;50.840;4.382;2022-07-01T03:49:37;14.40;99.90
29207;DHT22;16247;50.840;4.382;2022-07-01T03:52:03;14.40;99.90
29207;DHT22;16247;50.840;4.382;2022-07-01T03:54:31;14.30;99.90
29207;DHT22;16247;50.840;4.382;2022-07-01T03:57:08;14.20;99.90
29207;DHT22;16247;50.840;4.382;2022-07-01T03:59:37;14.40;99.90
29207;DHT22;16247;50.840;4.382;2022-07-01T04:02:08;14.40;99.90
29207;DHT22;16247;50.840;4.382;2022-07-01T04:04:35;14.10;99.90
29207;DHT22;16247;50.840;4.382;2022-07-01T04:07:03;14.30;99.90
29207;DHT22;16247;50.840;4.382;2022-07-01T04:09:38;14.40;99.90
29207;DHT22;16247;50.840;4.382;2022-07-01T04:12:04;14.40;99.90
29207;DHT22;16247;50.840;4.382;2022-07-01T04:14:48;14.30;99.90
29207;DHT22;16247;50.840;4.382;2022-07-01T04:17:14;14.20;99.90
29207;DHT22;16247;50.840;4.382;2022-07-01T04:19:42;14.10;99.90
29207;DHT22;16247;50.840;4.382;2022-07-01T04:22:08;14.10;99.90
29207;DHT22;16247;50.840;4.382;2022-07-01T04:24:53;14.10;99.90
29207;DHT22;16247;50.840;4.382;2022-07-01T04:27:22;14.00;99.90
29207;DHT22;16247;50.840;4.382;2022-07-01T04:30:14;14.10;99.90
29207;DHT22;16247;50.840;4.382;2022-07-01T04:32:40;14.10;99.90
29207;DHT22;16247;50.840;4.382;2022-07-01T04:35:07;14.20;99.90
29207;DHT22;16247;50.840;4.382;2022-07-01T04:37:36;14.10;99.90
29207;DHT22;16247;50.840;4.382;2022-07-01T04:40:04;14.20;99.90
29207;DHT22;16247;50.840;4.382;2022-07-01T04:42:30;14.10;99.90
29207;DHT22;16247;50.840;4.382;2022-07-01T04:44:59;14.10;99.90
29207;DHT22;16247;50.840;4.382;2022-07-01T04:47:25;14.00;99.90
29207;DHT22;16247;50.840;4.382;2022-07-01T04:49:53;14.10;99.90
29207;DHT22;16247;50.840;4.382;2022-07-01T04:52:18;14.10;99.90
29207;DHT22;16247;50.840;4.382;2022-07-01T04:54:44;14.00;99.90
29207;DHT22;16247;50.840;4.382;2022-07-01T04:57:36;13.90;99.90
29207;DHT22;16247;50.840;4.382;2022-07-01T05:03:26;13.80;99.90
29207;DHT22;16247;50.840;4.382;2022-07-01T05:05:53;13.70;99.90
29207;DHT22;16247;50.840;4.382;2022-07-01T05:08:20;13.90;99.90
29207;DHT22;16247;50.840;4.382;2022-07-01T05:10:47;13.90;99.90
29207;DHT22;16247;50.840;4.382;2022-07-01T05:13:17;14.10;99.90
29207;DHT22;16247;50.840;4.382;2022-07-01T05:15:48;13.90;99.90
29207;DHT22;16247;50.840;4.382;2022-07-01T05:18:15;14.10;99.90
29207;DHT22;16247;50.840;4.382;2022-07-01T05:21:06;14.10;99.90
29207;DHT22;16247;50.840;4.382;2022-07-01T05:23:53;14.00;99.90
29207;DHT22;16247;50.840;4.382;2022-07-01T05:26:21;14.00;99.90
29207;DHT22;16247;50.840;4.382;2022-07-01T05:28:52;14.00;99.90
29207;DHT22;16247;50.840;4.382;2022-07-01T05:31:21;13.90;99.90
29207;DHT22;16247;50.840;4.382;2022-07-01T05:33:54;14.10;99.90
29207;DHT22;16247;50.840;4.382;2022-07-01T05:36:23;14.10;99.90
29207;DHT22;16247;50.840;4.382;2022-07-01T05:38:56;14.20;99.90
29207;DHT22;16247;50.840;4.382;2022-07-01T05:41:22;14.20;99.90
29207;DHT22;16247;50.840;4.382;2022-07-01T05:43:51;14.30;99.90
29207;DHT22;16247;50.840;4.382;2022-07-01T05:46:17;14.20;99.90
29207;DHT22;16247;50.840;4.382;2022-07-01T05:48:44;14.20;99.90
29207;DHT22;16247;50.840;4.382;2022-07-01T05:51:10;14.00;99.90
29207;DHT22;16247;50.840;4.382;2022-07-01T05:53:37;14.30;99.90
29207;DHT22;16247;50.840;4.382;2022-07-01T05:56:06;14.30;99.90
29207;DHT22;16247;50.840;4.382;2022-07-01T05:58:35;14.60;99.90
29207;DHT22;16247;50.840;4.382;2022-07-01T06:01:05;14.50;99.90
29207;DHT22;16247;50.840;4.382;2022-07-01T06:03:30;14.40;99.90
29207;DHT22;16247;50.840;4.382;2022-07-01T06:06:01;14.40;99.90
29207;DHT22;16247;50.840;4.382;2022-07-01T06:08:30;14.40;99.90
29207;DHT22;16247;50.840;4.382;2022-07-01T06:10:56;14.40;99.90
29207;DHT22;16247;50.840;4.382;2022-07-01T06:13:22;14.50;99.90
29207;DHT22;16247;50.840;4.382;2022-07-01T06:15:47;14.50;99.90
29207;DHT22;16247;50.840;4.382;2022-07-01T06:18:13;14.70;99.90
29207;DHT22;16247;50.840;4.382;2022-07-01T06:20:39;14.70;99.90
29207;DHT22;16247;50.840;4.382;2022-07-01T06:23:05;14.90;99.90
29207;DHT22;16247;50.840;4.382;2022-07-01T06:25:31;15.20;99.90
29207;DHT22;16247;50.840;4.382;2022-07-01T06:27:56;15.30;99.90
29207;DHT22;16247;50.840;4.382;2022-07-01T06:30:22;15.70;99.90
29207;DHT22;16247;50.840;4.382;2022-07-01T06:32:47;15.80;99.90
29207;DHT22;16247;50.840;4.382;2022-07-01T06:35:13;16.00;99.90
29207;DHT22;16247;50.840;4.382;2022-07-01T06:37:39;16.20;99.90
29207;DHT22;16247;50.840;4.382;2022-07-01T06:40:06;16.30;99.90
29207;DHT22;16247;50.840;4.382;2022-07-01T06:42:33;16.60;99.90
29207;DHT22;16247;50.840;4.382;2022-07-01T06:44:59;16.60;99.90
29207;DHT22;16247;50.840;4.382;2022-07-01T06:47:24;16.80;99.90
29207;DHT22;16247;50.840;4.382;2022-07-01T06:49:50;16.90;99.90
29207;DHT22;16247;50.840;4.382;2022-07-01T06:52:16;16.80;99.90
29207;DHT22;16247;50.840;4.382;2022-07-01T06:54:42;17.10;99.90
29207;DHT22;16247;50.840;4.382;2022-07-01T06:57:08;17.10;99.90
29207;DHT22;16247;50.840;4.382;2022-07-01T06:59:33;17.00;99.90
29207;DHT22;16247;50.840;4.382;2022-07-01T07:01:59;17.20;99.90
29207;DHT22;16247;50.840;4.382;2022-07-01T07:04:25;17.30;99.90
29207;DHT22;16247;50.840;4.382;2022-07-01T07:06:51;17.40;99.90
29207;DHT22;16247;50.840;4.382;2022-07-01T07:09:16;17.20;99.90
29207;DHT22;16247;50.840;4.382;2022-07-01T07:11:42;17.10;99.90
29207;DHT22;16247;50.840;4.382;2022-07-01T07:14:07;17.00;99.90
29207;DHT22;16247;50.840;4.382;2022-07-01T07:16:33;17.20;99.90
29207;DHT22;16247;50.840;4.382;2022-07-01T07:18:59;17.10;99.90
29207;DHT22;16247;50.840;4.382;2022-07-01T07:21:24;17.10;99.90
29207;DHT22;16247;50.840;4.382;2022-07-01T07:23:50;17.00;99.90
29207;DHT22;16247;50.840;4.382;2022-07-01T07:26:16;17.30;99.90
29207;DHT22;16247;50.840;4.382;2022-07-01T07:28:41;17.30;99.90
29207;DHT22;16247;50.840;4.382;2022-07-01T07:31:07;17.20;99.90
29207;DHT22;16247;50.840;4.382;2022-07-01T07:33:33;17.30;99.90
29207;DHT22;16247;50.840;4.382;2022-07-01T07:35:58;17.50;99.90
29207;DHT22;16247;50.840;4.382;2022-07-01T07:38:24;17.40;99.90
29207;DHT22;16247;50.840;4.382;2022-07-01T07:40:50;17.40;99.90
29207;DHT22;16247;50.840;4.382;2022-07-01T07:43:15;17.10;99.90
29207;DHT22;16247;50.840;4.382;2022-07-01T07:45:41;17.50;99.90
29207;DHT22;16247;50.840;4.382;2022-07-01T07:48:06;17.70;99.90
29207;DHT22;16247;50.840;4.382;2022-07-01T07:50:33;17.90;99.90
29207;DHT22;16247;50.840;4.382;2022-07-01T07:52:59;18.10;99.90
29207;DHT22;16247;50.840;4.382;2022-07-01T07:55:25;18.00;99.90
29207;DHT22;16247;50.840;4.382;2022-07-01T07:57:51;18.10;99.90
29207;DHT22;16247;50.840;4.382;2022-07-01T08:00:17;18.20;99.90
29207;DHT22;16247;50.840;4.382;2022-07-01T08:02:43;18.20;99.90
29207;DHT22;16247;50.840;4.382;2022-07-01T08:05:09;18.40;99.90
29207;DHT22;16247;50.840;4.382;2022-07-01T08:07:40;18.70;99.90
29207;DHT22;16247;50.840;4.382;2022-07-01T08:10:10;18.60;99.90
29207;DHT22;16247;50.840;4.382;2022-07-01T08:12:36;18.50;99.90
29207;DHT22;16247;50.840;4.382;2022-07-01T08:15:02;18.60;99.90
29207;DHT22;16247;50.840;4.382;2022-07-01T08:17:28;18.60;99.90
29207;DHT22;16247;50.840;4.382;2022-07-01T08:19:53;18.70;99.90
29207;DHT22;16247;50.840;4.382;2022-07-01T08:22:19;18.50;99.90
29207;DHT22;16247;50.840;4.382;2022-07-01T08:24:45;18.60;99.90
29207;DHT22;16247;50.840;4.382;2022-07-01T08:27:10;18.50;99.90
29207;DHT22;16247;50.840;4.382;2022-07-01T08:29:38;18.70;99.90
29207;DHT22;16247;50.840;4.382;2022-07-01T08:32:04;18.80;99.90
29207;DHT22;16247;50.840;4.382;2022-07-01T08:34:30;18.50;99.90
29207;DHT22;16247;50.840;4.382;2022-07-01T08:36:55;18.60;99.90
29207;DHT22;16247;50.840;4.382;2022-07-01T08:39:21;18.90;99.90
29207;DHT22;16247;50.840;4.382;2022-07-01T08:41:47;18.50;99.90
29207;DHT22;16247;50.840;4.382;2022-07-01T08:44:13;18.60;99.90
29207;DHT22;16247;50.840;4.382;2022-07-01T08:46:39;18.40;99.90
29207;DHT22;16247;50.840;4.382;2022-07-01T08:49:05;18.40;99.90
29207;DHT22;16247;50.840;4.382;2022-07-01T08:51:31;18.30;99.90
29207;DHT22;16247;50.840;4.382;2022-07-01T08:53:57;18.20;99.90
29207;DHT22;16247;50.840;4.382;2022-07-01T08:56:22;18.00;99.90
29207;DHT22;16247;50.840;4.382;2022-07-01T08:59:06;18.10;99.90
29207;DHT22;16247;50.840;4.382;2022-07-01T09:01:33;18.30;99.90
29207;DHT22;16247;50.840;4.382;2022-07-01T09:04:20;18.60;99.90
29207;DHT22;16247;50.840;4.382;2022-07-01T09:06:47;18.70;99.90
29207;DHT22;16247;50.840;4.382;2022-07-01T09:09:22;18.90;99.90
29207;DHT22;16247;50.840;4.382;2022-07-01T09:11:50;19.00;99.90
29207;DHT22;16247;50.840;4.382;2022-07-01T09:14:27;18.90;99.90
29207;DHT22;16247;50.840;4.382;2022-07-01T09:16:55;19.00;99.90
29207;DHT22;16247;50.840;4.382;2022-07-01T09:19:22;19.00;99.90
29207;DHT22;16247;50.840;4.382;2022-07-01T09:21:53;18.90;99.90
29207;DHT22;16247;50.840;4.382;2022-07-01T09:24:33;18.90;99.90
29207;DHT22;16247;50.840;4.382;2022-07-01T09:27:05;18.70;99.90
29207;DHT22;16247;50.840;4.382;2022-07-01T09:29:40;18.80;99.90
29207;DHT22;16247;50.840;4.382;2022-07-01T09:32:08;19.00;99.90
29207;DHT22;16247;50.840;4.382;2022-07-01T09:34:46;19.20;99.90
29207;DHT22;16247;50.840;4.382;2022-07-01T09:37:18;19.10;99.90
29207;DHT22;16247;50.840;4.382;2022-07-01T09:39:47;19.20;99.90
29207;DHT22;16247;50.840;4.382;2022-07-01T09:42:14;19.40;99.90
29207;DHT22;16247;50.840;4.382;2022-07-01T09:44:59;19.70;99.90
29207;DHT22;16247;50.840;4.382;2022-07-01T09:47:27;19.90;99.90
29207;DHT22;16247;50.840;4.382;2022-07-01T09:49:53;19.70;99.90
29207;DHT22;16247;50.840;4.382;2022-07-01T09:52:20;19.70;99.90
29207;DHT22;16247;50.840;4.382;2022-07-01T09:54:46;19.70;99.90
29207;DHT22;16247;50.840;4.382;2022-07-01T09:57:16;19.60;99.90
29207;DHT22;16247;50.840;4.382;2022-07-01T09:59:42;19.50;99.90
29207;DHT22;16247;50.840;4.382;2022-07-01T10:02:09;19.40;99.90
29207;DHT22;16247;50.840;4.382;2022-07-01T10:04:59;19.40;99.90
29207;DHT22;16247;50.840;4.382;2022-07-01T13:46:17;22.10;99.90
29207;DHT22;16247;50.840;4.382;2022-07-01T13:48:44;22.00;99.90
29207;DHT22;16247;50.840;4.382;2022-07-01T13:51:11;22.20;99.90
29207;DHT22;16247;50.840;4.382;2022-07-01T13:53:39;22.00;99.90
29207;DHT22;16247;50.840;4.382;2022-07-01T13:56:12;21.90;99.90
29207;DHT22;16247;50.840;4.382;2022-07-01T13:58:38;21.90;99.90
29207;DHT22;16247;50.840;4.382;2022-07-01T14:01:28;21.80;99.90
29207;DHT22;16247;50.840;4.382;2022-07-01T14:03:56;21.70;99.90
29207;DHT22;16247;50.840;4.382;2022-07-01T14:06:22;21.60;99.90
29207;DHT22;16247;50.840;4.382;2022-07-01T14:08:51;21.50;99.90
29207;DHT22;16247;50.840;4.382;2022-07-01T14:11:27;21.60;99.90
29207;DHT22;16247;50.840;4.382;2022-07-01T14:13:58;21.50;99.90
29207;DHT22;16247;50.840;4.382;2022-07-01T14:16:27;21.20;99.90
29207;DHT22;16247;50.840;4.382;2022-07-01T14:18:57;20.90;99.90
29207;DHT22;16247;50.840;4.382;2022-07-01T14:21:28;20.90;99.90
29207;DHT22;16247;50.840;4.382;2022-07-01T14:23:56;20.80;99.90
29207;DHT22;16247;50.840;4.382;2022-07-01T14:26:26;20.80;99.90
29207;DHT22;16247;50.840;4.382;2022-07-01T14:28:58;20.70;99.90
29207;DHT22;16247;50.840;4.382;2022-07-01T14:31:25;20.70;99.90
29207;DHT22;16247;50.840;4.382;2022-07-01T14:33:53;20.80;99.90
29207;DHT22;16247;50.840;4.382;2022-07-01T14:36:21;21.00;99.90
29207;DHT22;16247;50.840;4.382;2022-07-01T14:38:56;21.10;99.90
29207;DHT22;16247;50.840;4.382;2022-07-01T14:41:23;21.10;99.90
29207;DHT22;16247;50.840;4.382;2022-07-01T14:43:50;21.20;99.90
29207;DHT22;16247;50.840;4.382;2022-07-01T14:46:19;21.60;99.90
29207;DHT22;16247;50.840;4.382;2022-07-01T14:48:47;21.60;99.90
29207;DHT22;16247;50.840;4.382;2022-07-01T14:51:13;21.70;99.90
29207;DHT22;16247;50.840;4.382;2022-07-01T14:53:42;21.80;99.90
29207;DHT22;16247;50.840;4.382;2022-07-01T14:56:14;21.60;99.90
29207;DHT22;16247;50.840;4.382;2022-07-01T14:58:44;21.70;99.90
29207;DHT22;16247;50.840;4.382;2022-07-01T15:01:11;21.60;99.90
29207;DHT22;16247;50.840;4.382;2022-07-01T15:03:46;21.70;99.90
29207;DHT22;16247;50.840;4.382;2022-07-01T15:06:23;22.00;99.90
29207;DHT22;16247;50.840;4.382;2022-07-01T15:08:49;22.20;99.90
29207;DHT22;16247;50.840;4.382;2022-07-01T15:11:18;22.40;99.90
29207;DHT22;16247;50.840;4.382;2022-07-01T15:13:45;22.40;99.90
29207;DHT22;16247;50.840;4.382;2022-07-01T15:16:15;22.50;99.90
29207;DHT22;16247;50.840;4.382;2022-07-01T15:18:42;22.60;99.90
29207;DHT22;16247;50.840;4.382;2022-07-01T15:21:10;22.50;99.90
29207;DHT22;16247;50.840;4.382;2022-07-01T15:23:37;22.40;99.90
29207;DHT22;16247;50.840;4.382;2022-07-01T15:26:12;22.40;99.90
29207;DHT22;16247;50.840;4.382;2022-07-01T15:28:40;22.30;99.90
29207;DHT22;16247;50.840;4.382;2022-07-01T15:31:09;22.10;99.90
29207;DHT22;16247;50.840;4.382;2022-07-01T15:33:51;21.90;99.90
29207;DHT22;16247;50.840;4.382;2022-07-01T15:36:20;21.70;99.90
29207;DHT22;16247;50.840;4.382;2022-07-01T15:38:49;21.60;99.90
29207;DHT22;16247;50.840;4.382;2022-07-01T15:41:33;21.50;99.90
29207;DHT22;16247;50.840;4.382;2022-07-01T15:44:13;21.40;99.90
29207;DHT22;16247;50.840;4.382;2022-07-01T15:46:53;21.40;99.90
29207;DHT22;16247;50.840;4.382;2022-07-01T15:49:50;21.60;99.90
29207;DHT22;16247;50.840;4.382;2022-07-01T15:52:30;21.70;99.90
29207;DHT22;16247;50.840;4.382;2022-07-01T15:55:23;21.60;99.90
29207;DHT22;16247;50.840;4.382;2022-07-01T15:58:04;21.60;99.90
29207;DHT22;16247;50.840;4.382;2022-07-01T16:03:11;21.60;99.90
29207;DHT22;16247;50.840;4.382;2022-07-01T16:06:57;21.80;99.90
29207;DHT22;16247;50.840;4.382;2022-07-01T16:09:34;21.50;99.90
29207;DHT22;16247;50.840;4.382;2022-07-01T16:12:04;21.50;99.90
29207;DHT22;16247;50.840;4.382;2022-07-01T16:14:38;21.70;99.90
29207;DHT22;16247;50.840;4.382;2022-07-01T16:19:53;21.90;99.90
29207;DHT22;16247;50.840;4.382;2022-07-01T16:22:37;22.00;99.90
29207;DHT22;16247;50.840;4.382;2022-07-01T16:25:29;22.00;99.90
29207;DHT22;16247;50.840;4.382;2022-07-01T16:28:09;21.90;99.90
29207;DHT22;16247;50.840;4.382;2022-07-01T16:30:41;21.90;99.90
29207;DHT22;16247;50.840;4.382;2022-07-01T16:33:12;22.10;99.90
29207;DHT22;16247;50.840;4.382;2022-07-01T16:44:37;21.60;99.90
29207;DHT22;16247;50.840;4.382;2022-07-01T16:47:05;21.70;99.90
29207;DHT22;16247;50.840;4.382;2022-07-01T16:49:35;21.60;99.90
29207;DHT22;16247;50.840;4.382;2022-07-01T16:57:14;21.40;99.90
29207;DHT22;16247;50.840;4.382;2022-07-01T16:59:43;21.20;99.90
29207;DHT22;16247;50.840;4.382;2022-07-01T17:02:25;21.20;99.90
29207;DHT22;16247;50.840;4.382;2022-07-01T17:04:55;21.20;99.90
29207;DHT22;16247;50.840;4.382;2022-07-01T17:07:29;21.20;99.90
29207;DHT22;16247;50.840;4.382;2022-07-01T17:09:59;21.10;99.90
29207;DHT22;16247;50.840;4.382;2022-07-01T17:12:28;20.90;99.90
29207;DHT22;16247;50.840;4.382;2022-07-01T17:14:56;20.90;99.90
29207;DHT22;16247;50.840;4.382;2022-07-01T17:17:24;21.00;99.90
29207;DHT22;16247;50.840;4.382;2022-07-01T17:19:50;21.20;99.90
29207;DHT22;16247;50.840;4.382;2022-07-01T17:25:14;21.10;99.90
29207;DHT22;16247;50.840;4.382;2022-07-01T17:34:29;21.60;99.90
29207;DHT22;16247;50.840;4.382;2022-07-01T17:37:08;21.30;99.90
29207;DHT22;16247;50.840;4.382;2022-07-01T17:42:11;21.30;99.90
29207;DHT22;16247;50.840;4.382;2022-07-01T17:44:37;21.10;99.90
29207;DHT22;16247;50.840;4.382;2022-07-01T17:47:11;20.80;99.90
29207;DHT22;16247;50.840;4.382;2022-07-01T17:49:39;20.80;99.90
29207;DHT22;16247;50.840;4.382;2022-07-01T18:00:34;20.90;99.90
29207;DHT22;16247;50.840;4.382;2022-07-01T18:08:05;21.60;99.90
29207;DHT22;16247;50.840;4.382;2022-07-01T18:10:43;22.10;99.90
29207;DHT22;16247;50.840;4.382;2022-07-01T18:13:21;22.30;99.90
29207;DHT22;16247;50.840;4.382;2022-07-01T18:16:13;22.70;99.90
29207;DHT22;16247;50.840;4.382;2022-07-01T18:18:51;22.60;99.90
29207;DHT22;16247;50.840;4.382;2022-07-01T18:21:35;22.00;99.90
29207;DHT22;16247;50.840;4.382;2022-07-01T18:24:36;21.90;99.90
29207;DHT22;16247;50.840;4.382;2022-07-01T18:37:52;20.90;99.90
29207;DHT22;16247;50.840;4.382;2022-07-01T18:40:41;20.70;99.90
29207;DHT22;16247;50.840;4.382;2022-07-01T18:46:25;20.50;99.90
29207;DHT22;16247;50.840;4.382;2022-07-01T19:38:45;19.90;99.90
29207;DHT22;16247;50.840;4.382;2022-07-01T19:41:11;19.90;99.90
29207;DHT22;16247;50.840;4.382;2022-07-01T19:43:37;19.90;99.90
29207;DHT22;16247;50.840;4.382;2022-07-01T19:46:05;20.00;99.90
29207;DHT22;16247;50.840;4.382;2022-07-01T19:48:31;19.90;99.90
29207;DHT22;16247;50.840;4.382;2022-07-01T19:50:58;20.30;99.90
29207;DHT22;16247;50.840;4.382;2022-07-01T19:53:24;20.20;99.90
29207;DHT22;16247;50.840;4.382;2022-07-01T19:55:50;20.30;99.90
29207;DHT22;16247;50.840;4.382;2022-07-01T19:58:17;20.20;99.90
29207;DHT22;16247;50.840;4.382;2022-07-01T20:00:43;20.10;99.90
29207;DHT22;16247;50.840;4.382;2022-07-01T20:03:09;20.10;99.90
29207;DHT22;16247;50.840;4.382;2022-07-01T20:05:35;20.30;99.90
29207;DHT22;16247;50.840;4.382;2022-07-01T20:08:03;20.30;99.90
29207;DHT22;16247;50.840;4.382;2022-07-01T20:10:32;20.30;99.90
29207;DHT22;16247;50.840;4.382;2022-07-01T20:12:59;20.30;99.90
29207;DHT22;16247;50.840;4.382;2022-07-01T20:15:29;20.30;99.90
29207;DHT22;16247;50.840;4.382;2022-07-01T20:18:00;20.50;99.90
29207;DHT22;16247;50.840;4.382;2022-07-01T20:20:27;20.40;99.90
29207;DHT22;16247;50.840;4.382;2022-07-01T20:22:54;20.40;99.90
29207;DHT22;16247;50.840;4.382;2022-07-01T20:25:20;20.50;99.90
29207;DHT22;16247;50.840;4.382;2022-07-01T20:27:45;20.40;99.90
29207;DHT22;16247;50.840;4.382;2022-07-01T20:30:11;20.40;99.90
29207;DHT22;16247;50.840;4.382;2022-07-01T20:32:41;20.30;99.90
29207;DHT22;16247;50.840;4.382;2022-07-01T20:35:22;20.30;99.90
29207;DHT22;16247;50.840;4.382;2022-07-01T20:41:10;20.30;99.90
29207;DHT22;16247;50.840;4.382;2022-07-01T20:43:36;20.30;99.90
29207;DHT22;16247;50.840;4.382;2022-07-01T20:46:02;20.40;99.90
29207;DHT22;16247;50.840;4.382;2022-07-01T20:48:27;20.30;99.90
29207;DHT22;16247;50.840;4.382;2022-07-01T20:50:54;20.30;99.90
29207;DHT22;16247;50.840;4.382;2022-07-01T20:53:20;20.30;99.90
29207;DHT22;16247;50.840;4.382;2022-07-01T20:55:45;20.40;99.90
29207;DHT22;16247;50.840;4.382;2022-07-01T20:58:12;20.40;99.90
29207;DHT22;16247;50.840;4.382;2022-07-01T21:01:08;20.60;99.90
29207;DHT22;16247;50.840;4.382;2022-07-01T21:03:35;20.30;99.90
29207;DHT22;16247;50.840;4.382;2022-07-01T21:06:07;20.30;99.90
29207;DHT22;16247;50.840;4.382;2022-07-01T21:08:33;20.20;99.90
29207;DHT22;16247;50.840;4.382;2022-07-01T21:11:00;20.40;99.90
29207;DHT22;16247;50.840;4.382;2022-07-01T21:13:26;20.20;99.90
29207;DHT22;16247;50.840;4.382;2022-07-01T21:15:52;20.20;99.90
29207;DHT22;16247;50.840;4.382;2022-07-01T21:18:18;20.10;99.90
29207;DHT22;16247;50.840;4.382;2022-07-01T21:20:44;20.20;99.90
29207;DHT22;16247;50.840;4.382;2022-07-01T21:23:10;20.00;99.90
29207;DHT22;16247;50.840;4.382;2022-07-01T21:25:36;20.10;99.90
29207;DHT22;16247;50.840;4.382;2022-07-01T21:28:02;20.10;99.90
29207;DHT22;16247;50.840;4.382;2022-07-01T21:30:29;20.10;99.90
29207;DHT22;16247;50.840;4.382;2022-07-01T21:33:00;20.10;99.90
29207;DHT22;16247;50.840;4.382;2022-07-01T21:35:27;20.10;99.90
29207;DHT22;16247;50.840;4.382;2022-07-01T21:37:53;20.00;99.90
29207;DHT22;16247;50.840;4.382;2022-07-01T21:40:19;19.90;99.90